sensor_id;sensor_type;location;lat;lon;timestamp;P1;durP1;ratioP1;P2;durP2;ratioP2
63087;SDS011;49173;43.164;27.786;2022-08-23T00:02:01;9.13;;;6.18;;
63087;SDS011;49173;43.164;27.786;2022-08-23T00:04:30;8.57;;;5.93;;
63087;SDS011;49173;43.164;27.786;2022-08-23T00:07:05;10.05;;;6.20;;
63087;SDS011;49173;43.164;27.786;2022-08-23T00:09:36;6.95;;;5.40;;
63087;SDS011;49173;43.164;27.786;2022-08-23T00:12:11;14.35;;;5.75;;
63087;SDS011;49173;43.164;27.786;2022-08-23T00:14:41;11.73;;;6.40;;
63087;SDS011;49173;43.164;27.786;2022-08-23T00:17:12;10.25;;;5.53;;
63087;SDS011;49173;43.164;27.786;2022-08-23T00:19:39;10.52;;;6.13;;
63087;SDS011;49173;43.164;27.786;2022-08-23T00:22:05;13.02;;;6.75;;
63087;SDS011;49173;43.164;27.786;2022-08-23T00:24:32;10.18;;;5.95;;
63087;SDS011;49173;43.164;27.786;2022-08-23T00:29:42;9.43;;;6.10;;
63087;SDS011;49173;43.164;27.786;2022-08-23T00:32:19;12.90;;;6.40;;
63087;SDS011;49173;43.164;27.786;2022-08-23T00:34:46;12.90;;;6.82;;
63087;SDS011;49173;43.164;27.786;2022-08-23T00:37:12;9.48;;;6.13;;
63087;SDS011;49173;43.164;27.786;2022-08-23T00:39:40;14.25;;;6.35;;
63087;SDS011;49173;43.164;27.786;2022-08-23T00:42:09;9.75;;;6.20;;
63087;SDS011;49173;43.164;27.786;2022-08-23T00:44:55;11.48;;;5.70;;
63087;SDS011;49173;43.164;27.786;2022-08-23T00:47:41;10.32;;;6.47;;
63087;SDS011;49173;43.164;27.786;2022-08-23T00:53:04;9.98;;;6.47;;
63087;SDS011;49173;43.164;27.786;2022-08-23T00:55:37;14.45;;;6.43;;
63087;SDS011;49173;43.164;27.786;2022-08-23T00:58:06;10.63;;;6.28;;
63087;SDS011;49173;43.164;27.786;2022-08-23T01:00:33;10.02;;;6.13;;
63087;SDS011;49173;43.164;27.786;2022-08-23T01:03:00;11.05;;;6.32;;
63087;SDS011;49173;43.164;27.786;2022-08-23T01:05:29;11.07;;;6.40;;
63087;SDS011;49173;43.164;27.786;2022-08-23T01:08:05;8.48;;;6.32;;
63087;SDS011;49173;43.164;27.786;2022-08-23T01:10:41;8.75;;;6.38;;
63087;SDS011;49173;43.164;27.786;2022-08-23T01:18:58;10.98;;;6.00;;
63087;SDS011;49173;43.164;27.786;2022-08-23T01:21:59;15.20;;;6.22;;
63087;SDS011;49173;43.164;27.786;2022-08-23T01:24:24;9.02;;;5.93;;
63087;SDS011;49173;43.164;27.786;2022-08-23T01:26:50;12.95;;;6.30;;
63087;SDS011;49173;43.164;27.786;2022-08-23T01:29:16;11.40;;;6.35;;
63087;SDS011;49173;43.164;27.786;2022-08-23T01:31:42;11.43;;;6.45;;
63087;SDS011;49173;43.164;27.786;2022-08-23T01:34:09;11.52;;;6.10;;
63087;SDS011;49173;43.164;27.786;2022-08-23T01:36:36;9.57;;;6.65;;
63087;SDS011;49173;43.164;27.786;2022-08-23T01:39:03;11.93;;;6.10;;
63087;SDS011;49173;43.164;27.786;2022-08-23T01:41:29;10.25;;;6.43;;
63087;SDS011;49173;43.164;27.786;2022-08-23T01:43:55;9.68;;;6.32;;
63087;SDS011;49173;43.164;27.786;2022-08-23T01:46:22;12.30;;;6.40;;
63087;SDS011;49173;43.164;27.786;2022-08-23T01:48:50;11.55;;;6.20;;
63087;SDS011;49173;43.164;27.786;2022-08-23T01:51:17;13.60;;;7.28;;
63087;SDS011;49173;43.164;27.786;2022-08-23T01:53:44;14.05;;;6.97;;
63087;SDS011;49173;43.164;27.786;2022-08-23T01:56:11;9.73;;;7.57;;
63087;SDS011;49173;43.164;27.786;2022-08-23T01:58:38;18.77;;;8.65;;
63087;SDS011;49173;43.164;27.786;2022-08-23T02:01:04;17.77;;;10.88;;
63087;SDS011;49173;43.164;27.786;2022-08-23T02:03:30;20.92;;;11.63;;
63087;SDS011;49173;43.164;27.786;2022-08-23T02:05:57;18.25;;;13.57;;
63087;SDS011;49173;43.164;27.786;2022-08-23T02:08:24;23.35;;;14.57;;
63087;SDS011;49173;43.164;27.786;2022-08-23T02:11:10;22.98;;;15.75;;
63087;SDS011;49173;43.164;27.786;2022-08-23T02:13:39;20.13;;;12.90;;
63087;SDS011;49173;43.164;27.786;2022-08-23T02:16:06;16.48;;;11.35;;
63087;SDS011;49173;43.164;27.786;2022-08-23T02:18:32;12.98;;;9.00;;
63087;SDS011;49173;43.164;27.786;2022-08-23T02:20:58;12.50;;;8.10;;
63087;SDS011;49173;43.164;27.786;2022-08-23T02:23:25;14.55;;;10.00;;
63087;SDS011;49173;43.164;27.786;2022-08-23T02:25:51;18.70;;;12.68;;
63087;SDS011;49173;43.164;27.786;2022-08-23T02:28:18;22.63;;;14.52;;
63087;SDS011;49173;43.164;27.786;2022-08-23T02:30:46;29.70;;;18.13;;
63087;SDS011;49173;43.164;27.786;2022-08-23T02:33:12;26.35;;;18.60;;
63087;SDS011;49173;43.164;27.786;2022-08-23T02:35:39;27.67;;;19.83;;
63087;SDS011;49173;43.164;27.786;2022-08-23T02:38:07;24.58;;;18.40;;
63087;SDS011;49173;43.164;27.786;2022-08-23T02:40:34;29.73;;;20.43;;
63087;SDS011;49173;43.164;27.786;2022-08-23T02:43:00;30.35;;;19.63;;
63087;SDS011;49173;43.164;27.786;2022-08-23T02:45:27;28.65;;;19.88;;
63087;SDS011;49173;43.164;27.786;2022-08-23T02:47:54;30.48;;;19.00;;
63087;SDS011;49173;43.164;27.786;2022-08-23T02:50:21;30.08;;;18.02;;
63087;SDS011;49173;43.164;27.786;2022-08-23T02:52:47;24.45;;;18.45;;
63087;SDS011;49173;43.164;27.786;2022-08-23T02:55:13;27.92;;;18.08;;
63087;SDS011;49173;43.164;27.786;2022-08-23T02:57:39;26.30;;;17.52;;
63087;SDS011;49173;43.164;27.786;2022-08-23T03:00:07;25.33;;;17.40;;
63087;SDS011;49173;43.164;27.786;2022-08-23T03:02:37;27.20;;;18.05;;
63087;SDS011;49173;43.164;27.786;2022-08-23T03:05:04;27.65;;;17.63;;
63087;SDS011;49173;43.164;27.786;2022-08-23T03:07:31;25.70;;;17.35;;
63087;SDS011;49173;43.164;27.786;2022-08-23T03:09:56;29.70;;;17.70;;
63087;SDS011;49173;43.164;27.786;2022-08-23T03:12:23;26.13;;;17.70;;
63087;SDS011;49173;43.164;27.786;2022-08-23T03:14:49;32.95;;;18.23;;
63087;SDS011;49173;43.164;27.786;2022-08-23T03:17:16;28.65;;;18.20;;
63087;SDS011;49173;43.164;27.786;2022-08-23T03:19:42;25.80;;;16.75;;
63087;SDS011;49173;43.164;27.786;2022-08-23T03:22:08;28.98;;;17.52;;
63087;SDS011;49173;43.164;27.786;2022-08-23T03:24:35;35.17;;;17.90;;
63087;SDS011;49173;43.164;27.786;2022-08-23T03:27:02;30.08;;;19.40;;
63087;SDS011;49173;43.164;27.786;2022-08-23T03:29:28;25.02;;;17.63;;
63087;SDS011;49173;43.164;27.786;2022-08-23T03:31:56;29.00;;;18.42;;
63087;SDS011;49173;43.164;27.786;2022-08-23T03:34:22;52.40;;;19.15;;
63087;SDS011;49173;43.164;27.786;2022-08-23T03:36:48;114.72;;;22.60;;
63087;SDS011;49173;43.164;27.786;2022-08-23T03:39:14;34.38;;;17.75;;
63087;SDS011;49173;43.164;27.786;2022-08-23T03:41:40;42.15;;;17.92;;
63087;SDS011;49173;43.164;27.786;2022-08-23T03:44:06;24.05;;;16.75;;
63087;SDS011;49173;43.164;27.786;2022-08-23T03:46:33;28.48;;;16.58;;
63087;SDS011;49173;43.164;27.786;2022-08-23T03:49:00;22.90;;;17.05;;
63087;SDS011;49173;43.164;27.786;2022-08-23T03:51:27;24.63;;;16.52;;
63087;SDS011;49173;43.164;27.786;2022-08-23T03:53:54;34.95;;;17.23;;
63087;SDS011;49173;43.164;27.786;2022-08-23T03:56:24;26.02;;;15.95;;
63087;SDS011;49173;43.164;27.786;2022-08-23T03:59:03;21.85;;;15.38;;
63087;SDS011;49173;43.164;27.786;2022-08-23T04:01:32;22.02;;;15.60;;
63087;SDS011;49173;43.164;27.786;2022-08-23T04:03:58;26.75;;;15.80;;
63087;SDS011;49173;43.164;27.786;2022-08-23T04:06:25;26.00;;;15.60;;
63087;SDS011;49173;43.164;27.786;2022-08-23T04:08:52;28.88;;;15.82;;
63087;SDS011;49173;43.164;27.786;2022-08-23T04:11:19;26.77;;;15.02;;
63087;SDS011;49173;43.164;27.786;2022-08-23T04:13:46;27.70;;;15.25;;
63087;SDS011;49173;43.164;27.786;2022-08-23T04:16:11;25.27;;;15.20;;
63087;SDS011;49173;43.164;27.786;2022-08-23T04:18:38;24.85;;;15.65;;
63087;SDS011;49173;43.164;27.786;2022-08-23T04:21:06;28.90;;;15.43;;
63087;SDS011;49173;43.164;27.786;2022-08-23T04:23:37;21.98;;;14.77;;
63087;SDS011;49173;43.164;27.786;2022-08-23T04:26:04;22.33;;;13.93;;
63087;SDS011;49173;43.164;27.786;2022-08-23T04:28:31;27.15;;;15.10;;
63087;SDS011;49173;43.164;27.786;2022-08-23T04:30:58;28.60;;;14.18;;
63087;SDS011;49173;43.164;27.786;2022-08-23T04:33:25;24.45;;;13.18;;
63087;SDS011;49173;43.164;27.786;2022-08-23T04:35:52;36.38;;;14.23;;
63087;SDS011;49173;43.164;27.786;2022-08-23T04:38:17;44.15;;;15.57;;
63087;SDS011;49173;43.164;27.786;2022-08-23T04:40:43;41.03;;;15.25;;
63087;SDS011;49173;43.164;27.786;2022-08-23T04:43:28;28.95;;;13.85;;
63087;SDS011;49173;43.164;27.786;2022-08-23T04:45:54;23.67;;;13.82;;
63087;SDS011;49173;43.164;27.786;2022-08-23T04:48:21;26.88;;;13.30;;
63087;SDS011;49173;43.164;27.786;2022-08-23T04:50:48;30.58;;;12.95;;
63087;SDS011;49173;43.164;27.786;2022-08-23T04:53:15;24.33;;;12.20;;
63087;SDS011;49173;43.164;27.786;2022-08-23T04:55:42;21.33;;;11.45;;
63087;SDS011;49173;43.164;27.786;2022-08-23T04:58:08;20.27;;;10.57;;
63087;SDS011;49173;43.164;27.786;2022-08-23T05:00:34;22.20;;;11.00;;
63087;SDS011;49173;43.164;27.786;2022-08-23T05:02:59;21.17;;;10.25;;
63087;SDS011;49173;43.164;27.786;2022-08-23T05:05:25;19.85;;;10.00;;
63087;SDS011;49173;43.164;27.786;2022-08-23T05:07:51;17.15;;;9.52;;
63087;SDS011;49173;43.164;27.786;2022-08-23T05:10:18;25.00;;;10.82;;
63087;SDS011;49173;43.164;27.786;2022-08-23T05:12:44;18.90;;;9.52;;
63087;SDS011;49173;43.164;27.786;2022-08-23T05:15:11;21.23;;;10.52;;
63087;SDS011;49173;43.164;27.786;2022-08-23T05:17:37;22.13;;;10.93;;
63087;SDS011;49173;43.164;27.786;2022-08-23T05:20:05;28.00;;;12.57;;
63087;SDS011;49173;43.164;27.786;2022-08-23T05:22:32;21.73;;;10.48;;
63087;SDS011;49173;43.164;27.786;2022-08-23T05:24:59;24.67;;;10.20;;
63087;SDS011;49173;43.164;27.786;2022-08-23T05:27:25;18.92;;;9.35;;
63087;SDS011;49173;43.164;27.786;2022-08-23T05:29:51;21.88;;;9.18;;
63087;SDS011;49173;43.164;27.786;2022-08-23T05:32:19;20.20;;;9.07;;
63087;SDS011;49173;43.164;27.786;2022-08-23T05:34:45;26.00;;;8.65;;
63087;SDS011;49173;43.164;27.786;2022-08-23T05:37:11;16.27;;;8.50;;
63087;SDS011;49173;43.164;27.786;2022-08-23T05:39:37;24.83;;;9.32;;
63087;SDS011;49173;43.164;27.786;2022-08-23T05:42:04;20.13;;;8.80;;
63087;SDS011;49173;43.164;27.786;2022-08-23T05:44:31;15.93;;;8.45;;
63087;SDS011;49173;43.164;27.786;2022-08-23T05:46:57;20.48;;;7.93;;
63087;SDS011;49173;43.164;27.786;2022-08-23T05:49:23;13.38;;;8.27;;
63087;SDS011;49173;43.164;27.786;2022-08-23T05:51:49;21.98;;;8.20;;
63087;SDS011;49173;43.164;27.786;2022-08-23T05:54:15;13.85;;;7.43;;
63087;SDS011;49173;43.164;27.786;2022-08-23T05:56:42;18.85;;;7.75;;
63087;SDS011;49173;43.164;27.786;2022-08-23T05:59:09;16.10;;;7.38;;
63087;SDS011;49173;43.164;27.786;2022-08-23T06:04:04;9.75;;;6.10;;
63087;SDS011;49173;43.164;27.786;2022-08-23T06:06:32;14.48;;;6.53;;
63087;SDS011;49173;43.164;27.786;2022-08-23T06:08:59;18.70;;;6.32;;
63087;SDS011;49173;43.164;27.786;2022-08-23T06:11:27;15.52;;;6.68;;
63087;SDS011;49173;43.164;27.786;2022-08-23T06:14:00;13.57;;;6.43;;
63087;SDS011;49173;43.164;27.786;2022-08-23T06:16:29;12.90;;;5.93;;
63087;SDS011;49173;43.164;27.786;2022-08-23T06:18:57;14.48;;;6.20;;
63087;SDS011;49173;43.164;27.786;2022-08-23T06:21:26;13.50;;;6.38;;
63087;SDS011;49173;43.164;27.786;2022-08-23T06:23:53;12.48;;;6.30;;
63087;SDS011;49173;43.164;27.786;2022-08-23T06:26:20;14.00;;;6.07;;
63087;SDS011;49173;43.164;27.786;2022-08-23T06:28:51;11.45;;;5.65;;
63087;SDS011;49173;43.164;27.786;2022-08-23T06:31:20;10.60;;;5.53;;
63087;SDS011;49173;43.164;27.786;2022-08-23T06:34:06;12.18;;;5.80;;
63087;SDS011;49173;43.164;27.786;2022-08-23T06:36:33;9.98;;;5.63;;
63087;SDS011;49173;43.164;27.786;2022-08-23T06:39:00;12.80;;;5.50;;
63087;SDS011;49173;43.164;27.786;2022-08-23T06:41:27;14.98;;;5.53;;
63087;SDS011;49173;43.164;27.786;2022-08-23T06:43:52;13.20;;;5.15;;
63087;SDS011;49173;43.164;27.786;2022-08-23T06:46:20;15.30;;;5.07;;
63087;SDS011;49173;43.164;27.786;2022-08-23T06:48:48;17.77;;;5.47;;
63087;SDS011;49173;43.164;27.786;2022-08-23T06:53:47;16.13;;;5.72;;
63087;SDS011;49173;43.164;27.786;2022-08-23T06:56:13;15.65;;;5.68;;
63087;SDS011;49173;43.164;27.786;2022-08-23T06:58:39;18.85;;;5.30;;
63087;SDS011;49173;43.164;27.786;2022-08-23T07:01:13;24.40;;;11.32;;
63087;SDS011;49173;43.164;27.786;2022-08-23T07:03:54;32.55;;;12.75;;
63087;SDS011;49173;43.164;27.786;2022-08-23T07:06:22;18.30;;;6.80;;
63087;SDS011;49173;43.164;27.786;2022-08-23T07:08:50;20.05;;;5.90;;
63087;SDS011;49173;43.164;27.786;2022-08-23T07:11:16;31.60;;;6.00;;
63087;SDS011;49173;43.164;27.786;2022-08-23T07:13:43;20.05;;;5.82;;
63087;SDS011;49173;43.164;27.786;2022-08-23T07:16:09;19.73;;;5.18;;
63087;SDS011;49173;43.164;27.786;2022-08-23T07:18:35;22.80;;;5.68;;
63087;SDS011;49173;43.164;27.786;2022-08-23T07:21:01;20.40;;;6.30;;
63087;SDS011;49173;43.164;27.786;2022-08-23T07:23:31;17.17;;;5.80;;
63087;SDS011;49173;43.164;27.786;2022-08-23T07:26:01;17.98;;;5.80;;
63087;SDS011;49173;43.164;27.786;2022-08-23T07:28:31;25.15;;;5.88;;
63087;SDS011;49173;43.164;27.786;2022-08-23T07:31:42;22.27;;;5.70;;
63087;SDS011;49173;43.164;27.786;2022-08-23T07:33:48;21.13;;;6.45;;
63087;SDS011;49173;43.164;27.786;2022-08-23T07:36:16;19.30;;;5.60;;
63087;SDS011;49173;43.164;27.786;2022-08-23T07:38:43;20.67;;;5.68;;
63087;SDS011;49173;43.164;27.786;2022-08-23T07:41:10;21.50;;;6.20;;
63087;SDS011;49173;43.164;27.786;2022-08-23T07:43:37;24.08;;;5.80;;
63087;SDS011;49173;43.164;27.786;2022-08-23T07:46:04;25.42;;;5.95;;
63087;SDS011;49173;43.164;27.786;2022-08-23T07:48:31;18.52;;;5.72;;
63087;SDS011;49173;43.164;27.786;2022-08-23T07:51:00;21.40;;;6.03;;
63087;SDS011;49173;43.164;27.786;2022-08-23T07:53:28;25.48;;;6.00;;
63087;SDS011;49173;43.164;27.786;2022-08-23T07:55:54;24.00;;;6.22;;
63087;SDS011;49173;43.164;27.786;2022-08-23T07:58:21;24.67;;;5.30;;
63087;SDS011;49173;43.164;27.786;2022-08-23T08:00:48;17.57;;;5.00;;
63087;SDS011;49173;43.164;27.786;2022-08-23T08:03:16;30.17;;;5.65;;
63087;SDS011;49173;43.164;27.786;2022-08-23T08:05:43;23.15;;;5.55;;
63087;SDS011;49173;43.164;27.786;2022-08-23T08:08:09;20.33;;;5.68;;
63087;SDS011;49173;43.164;27.786;2022-08-23T08:10:41;18.20;;;4.80;;
63087;SDS011;49173;43.164;27.786;2022-08-23T08:13:08;23.02;;;5.47;;
63087;SDS011;49173;43.164;27.786;2022-08-23T08:15:38;27.20;;;5.55;;
63087;SDS011;49173;43.164;27.786;2022-08-23T08:18:06;22.65;;;5.75;;
63087;SDS011;49173;43.164;27.786;2022-08-23T08:20:32;26.83;;;5.68;;
63087;SDS011;49173;43.164;27.786;2022-08-23T08:23:01;20.73;;;5.32;;
63087;SDS011;49173;43.164;27.786;2022-08-23T08:25:32;21.13;;;5.30;;
63087;SDS011;49173;43.164;27.786;2022-08-23T08:28:01;23.70;;;4.97;;
63087;SDS011;49173;43.164;27.786;2022-08-23T08:30:28;18.02;;;4.72;;
63087;SDS011;49173;43.164;27.786;2022-08-23T08:32:54;18.05;;;4.53;;
63087;SDS011;49173;43.164;27.786;2022-08-23T08:35:21;19.85;;;5.45;;
63087;SDS011;49173;43.164;27.786;2022-08-23T08:37:47;21.50;;;5.22;;
63087;SDS011;49173;43.164;27.786;2022-08-23T08:40:16;16.40;;;4.75;;
63087;SDS011;49173;43.164;27.786;2022-08-23T08:45:57;15.63;;;4.20;;
63087;SDS011;49173;43.164;27.786;2022-08-23T08:48:42;20.20;;;5.37;;
63087;SDS011;49173;43.164;27.786;2022-08-23T08:53:49;20.58;;;4.20;;
63087;SDS011;49173;43.164;27.786;2022-08-23T08:58:53;16.38;;;3.95;;
63087;SDS011;49173;43.164;27.786;2022-08-23T09:01:26;20.10;;;4.30;;
63087;SDS011;49173;43.164;27.786;2022-08-23T09:03:54;14.98;;;4.70;;
63087;SDS011;49173;43.164;27.786;2022-08-23T09:12:16;18.13;;;4.75;;
63087;SDS011;49173;43.164;27.786;2022-08-23T09:14:57;17.30;;;4.38;;
63087;SDS011;49173;43.164;27.786;2022-08-23T09:17:39;18.90;;;4.45;;
63087;SDS011;49173;43.164;27.786;2022-08-23T09:20:09;20.45;;;4.20;;
63087;SDS011;49173;43.164;27.786;2022-08-23T09:22:40;17.88;;;4.20;;
63087;SDS011;49173;43.164;27.786;2022-08-23T09:25:13;11.55;;;3.33;;
63087;SDS011;49173;43.164;27.786;2022-08-23T09:27:42;15.50;;;3.58;;
63087;SDS011;49173;43.164;27.786;2022-08-23T09:30:12;18.63;;;3.88;;
63087;SDS011;49173;43.164;27.786;2022-08-23T09:32:41;19.27;;;3.80;;
63087;SDS011;49173;43.164;27.786;2022-08-23T09:37:51;15.60;;;4.20;;
63087;SDS011;49173;43.164;27.786;2022-08-23T09:40:29;15.52;;;3.70;;
63087;SDS011;49173;43.164;27.786;2022-08-23T09:43:06;15.85;;;3.92;;
63087;SDS011;49173;43.164;27.786;2022-08-23T09:48:33;13.90;;;3.95;;
63087;SDS011;49173;43.164;27.786;2022-08-23T09:54:43;18.27;;;4.40;;
63087;SDS011;49173;43.164;27.786;2022-08-23T09:56:52;10.95;;;4.10;;
63087;SDS011;49173;43.164;27.786;2022-08-23T10:01:55;16.80;;;3.42;;
63087;SDS011;49173;43.164;27.786;2022-08-23T10:06:54;17.92;;;3.60;;
63087;SDS011;49173;43.164;27.786;2022-08-23T10:09:30;17.13;;;4.55;;
63087;SDS011;49173;43.164;27.786;2022-08-23T10:11:58;19.15;;;3.95;;
63087;SDS011;49173;43.164;27.786;2022-08-23T10:14:27;17.52;;;4.38;;
63087;SDS011;49173;43.164;27.786;2022-08-23T10:20:07;20.83;;;3.83;;
63087;SDS011;49173;43.164;27.786;2022-08-23T10:23:02;14.82;;;3.53;;
63087;SDS011;49173;43.164;27.786;2022-08-23T10:25:58;19.17;;;3.75;;
63087;SDS011;49173;43.164;27.786;2022-08-23T10:31:30;14.13;;;4.40;;
63087;SDS011;49173;43.164;27.786;2022-08-23T10:34:17;14.00;;;4.05;;
63087;SDS011;49173;43.164;27.786;2022-08-23T10:39:41;20.88;;;4.60;;
63087;SDS011;49173;43.164;27.786;2022-08-23T10:50:40;13.88;;;4.03;;
63087;SDS011;49173;43.164;27.786;2022-08-23T10:55:46;13.20;;;3.92;;
63087;SDS011;49173;43.164;27.786;2022-08-23T10:58:49;19.98;;;4.63;;
63087;SDS011;49173;43.164;27.786;2022-08-23T11:01:21;20.98;;;4.13;;
63087;SDS011;49173;43.164;27.786;2022-08-23T11:04:04;18.83;;;4.70;;
63087;SDS011;49173;43.164;27.786;2022-08-23T11:06:50;15.50;;;4.25;;
63087;SDS011;49173;43.164;27.786;2022-08-23T11:11:47;17.35;;;4.25;;
63087;SDS011;49173;43.164;27.786;2022-08-23T11:14:36;13.98;;;4.15;;
63087;SDS011;49173;43.164;27.786;2022-08-23T11:17:10;17.60;;;4.35;;
63087;SDS011;49173;43.164;27.786;2022-08-23T11:19:51;20.30;;;5.07;;
63087;SDS011;49173;43.164;27.786;2022-08-23T11:22:19;16.50;;;4.18;;
63087;SDS011;49173;43.164;27.786;2022-08-23T11:24:50;18.33;;;4.43;;
63087;SDS011;49173;43.164;27.786;2022-08-23T11:33:16;17.05;;;4.53;;
63087;SDS011;49173;43.164;27.786;2022-08-23T11:35:44;19.65;;;4.25;;
63087;SDS011;49173;43.164;27.786;2022-08-23T11:39:05;12.52;;;3.72;;
63087;SDS011;49173;43.164;27.786;2022-08-23T11:43:49;19.63;;;4.55;;
63087;SDS011;49173;43.164;27.786;2022-08-23T11:46:36;23.92;;;4.70;;
63087;SDS011;49173;43.164;27.786;2022-08-23T12:00:44;17.67;;;4.25;;
63087;SDS011;49173;43.164;27.786;2022-08-23T12:06:09;23.73;;;4.75;;
63087;SDS011;49173;43.164;27.786;2022-08-23T12:08:47;17.48;;;4.72;;
63087;SDS011;49173;43.164;27.786;2022-08-23T12:11:23;20.20;;;4.75;;
63087;SDS011;49173;43.164;27.786;2022-08-23T12:14:32;14.18;;;4.00;;
63087;SDS011;49173;43.164;27.786;2022-08-23T12:19:44;14.43;;;4.30;;
63087;SDS011;49173;43.164;27.786;2022-08-23T12:22:17;16.90;;;4.40;;
63087;SDS011;49173;43.164;27.786;2022-08-23T12:24:52;17.10;;;4.05;;
63087;SDS011;49173;43.164;27.786;2022-08-23T12:30:26;20.40;;;4.43;;
63087;SDS011;49173;43.164;27.786;2022-08-23T12:38:47;18.85;;;4.45;;
63087;SDS011;49173;43.164;27.786;2022-08-23T12:41:26;14.07;;;4.45;;
63087;SDS011;49173;43.164;27.786;2022-08-23T12:43:59;19.60;;;4.15;;
63087;SDS011;49173;43.164;27.786;2022-08-23T12:46:32;17.63;;;4.35;;
63087;SDS011;49173;43.164;27.786;2022-08-23T12:49:08;18.45;;;3.83;;
63087;SDS011;49173;43.164;27.786;2022-08-23T12:51:49;20.17;;;4.80;;
63087;SDS011;49173;43.164;27.786;2022-08-23T12:54:23;21.80;;;4.60;;
63087;SDS011;49173;43.164;27.786;2022-08-23T13:02:43;15.65;;;4.00;;
63087;SDS011;49173;43.164;27.786;2022-08-23T13:05:20;17.23;;;3.83;;
63087;SDS011;49173;43.164;27.786;2022-08-23T13:08:00;14.60;;;4.60;;
63087;SDS011;49173;43.164;27.786;2022-08-23T13:10:32;12.02;;;3.95;;
63087;SDS011;49173;43.164;27.786;2022-08-23T13:13:03;17.20;;;4.57;;
63087;SDS011;49173;43.164;27.786;2022-08-23T13:15:44;15.18;;;3.83;;
63087;SDS011;49173;43.164;27.786;2022-08-23T13:18:22;16.65;;;4.05;;
63087;SDS011;49173;43.164;27.786;2022-08-23T13:21:14;18.02;;;3.92;;
63087;SDS011;49173;43.164;27.786;2022-08-23T13:23:45;14.65;;;3.75;;
63087;SDS011;49173;43.164;27.786;2022-08-23T13:26:25;13.48;;;3.70;;
63087;SDS011;49173;43.164;27.786;2022-08-23T13:31:51;17.15;;;4.88;;
63087;SDS011;49173;43.164;27.786;2022-08-23T13:34:36;17.85;;;4.20;;
63087;SDS011;49173;43.164;27.786;2022-08-23T13:37:24;23.08;;;4.38;;
63087;SDS011;49173;43.164;27.786;2022-08-23T13:39:59;14.70;;;4.03;;
63087;SDS011;49173;43.164;27.786;2022-08-23T13:42:46;17.60;;;4.22;;
63087;SDS011;49173;43.164;27.786;2022-08-23T13:45:23;16.00;;;4.10;;
63087;SDS011;49173;43.164;27.786;2022-08-23T13:47:58;20.08;;;4.25;;
63087;SDS011;49173;43.164;27.786;2022-08-23T13:50:36;15.57;;;4.65;;
63087;SDS011;49173;43.164;27.786;2022-08-23T13:53:07;17.00;;;4.03;;
63087;SDS011;49173;43.164;27.786;2022-08-23T13:58:25;19.58;;;4.55;;
63087;SDS011;49173;43.164;27.786;2022-08-23T14:00:57;18.92;;;4.97;;
63087;SDS011;49173;43.164;27.786;2022-08-23T14:03:25;20.45;;;4.82;;
63087;SDS011;49173;43.164;27.786;2022-08-23T14:05:52;17.83;;;4.25;;
63087;SDS011;49173;43.164;27.786;2022-08-23T14:08:19;16.08;;;4.03;;
63087;SDS011;49173;43.164;27.786;2022-08-23T14:10:46;22.02;;;4.88;;
63087;SDS011;49173;43.164;27.786;2022-08-23T14:13:14;26.17;;;5.13;;
63087;SDS011;49173;43.164;27.786;2022-08-23T14:15:44;18.92;;;4.68;;
63087;SDS011;49173;43.164;27.786;2022-08-23T14:18:12;20.60;;;4.50;;
63087;SDS011;49173;43.164;27.786;2022-08-23T14:20:40;17.73;;;4.32;;
63087;SDS011;49173;43.164;27.786;2022-08-23T14:23:07;50.08;;;5.88;;
63087;SDS011;49173;43.164;27.786;2022-08-23T14:25:37;22.88;;;4.90;;
63087;SDS011;49173;43.164;27.786;2022-08-23T14:28:04;24.10;;;4.22;;
63087;SDS011;49173;43.164;27.786;2022-08-23T14:30:32;26.02;;;4.22;;
63087;SDS011;49173;43.164;27.786;2022-08-23T14:33:01;18.80;;;3.92;;
63087;SDS011;49173;43.164;27.786;2022-08-23T14:35:28;20.65;;;4.28;;
63087;SDS011;49173;43.164;27.786;2022-08-23T14:37:56;17.02;;;4.40;;
63087;SDS011;49173;43.164;27.786;2022-08-23T14:40:24;22.52;;;4.20;;
63087;SDS011;49173;43.164;27.786;2022-08-23T14:42:50;15.70;;;4.10;;
63087;SDS011;49173;43.164;27.786;2022-08-23T14:45:19;18.63;;;4.87;;
63087;SDS011;49173;43.164;27.786;2022-08-23T14:47:47;25.98;;;4.45;;
63087;SDS011;49173;43.164;27.786;2022-08-23T14:50:17;22.73;;;4.38;;
63087;SDS011;49173;43.164;27.786;2022-08-23T14:52:44;21.25;;;4.45;;
63087;SDS011;49173;43.164;27.786;2022-08-23T14:55:12;19.53;;;4.00;;
63087;SDS011;49173;43.164;27.786;2022-08-23T14:57:41;22.98;;;5.20;;
63087;SDS011;49173;43.164;27.786;2022-08-23T15:00:09;22.88;;;4.55;;
63087;SDS011;49173;43.164;27.786;2022-08-23T15:02:43;14.30;;;4.22;;
63087;SDS011;49173;43.164;27.786;2022-08-23T15:05:12;21.38;;;4.68;;
63087;SDS011;49173;43.164;27.786;2022-08-23T15:07:39;26.35;;;5.15;;
63087;SDS011;49173;43.164;27.786;2022-08-23T15:10:06;31.13;;;5.50;;
63087;SDS011;49173;43.164;27.786;2022-08-23T15:12:34;19.27;;;4.97;;
63087;SDS011;49173;43.164;27.786;2022-08-23T15:15:03;20.38;;;5.13;;
63087;SDS011;49173;43.164;27.786;2022-08-23T15:17:34;27.30;;;5.53;;
63087;SDS011;49173;43.164;27.786;2022-08-23T15:20:03;27.52;;;5.07;;
63087;SDS011;49173;43.164;27.786;2022-08-23T15:22:30;31.80;;;5.63;;
63087;SDS011;49173;43.164;27.786;2022-08-23T15:24:56;38.67;;;6.10;;
63087;SDS011;49173;43.164;27.786;2022-08-23T15:27:24;26.88;;;6.45;;
63087;SDS011;49173;43.164;27.786;2022-08-23T15:29:54;30.25;;;5.70;;
63087;SDS011;49173;43.164;27.786;2022-08-23T15:32:23;29.10;;;5.55;;
63087;SDS011;49173;43.164;27.786;2022-08-23T15:34:50;36.80;;;5.93;;
63087;SDS011;49173;43.164;27.786;2022-08-23T15:37:18;34.42;;;5.93;;
63087;SDS011;49173;43.164;27.786;2022-08-23T15:39:45;32.15;;;5.72;;
63087;SDS011;49173;43.164;27.786;2022-08-23T15:42:13;42.60;;;7.13;;
63087;SDS011;49173;43.164;27.786;2022-08-23T15:44:40;30.45;;;6.00;;
63087;SDS011;49173;43.164;27.786;2022-08-23T15:47:14;38.78;;;6.13;;
63087;SDS011;49173;43.164;27.786;2022-08-23T15:49:52;32.15;;;5.78;;
63087;SDS011;49173;43.164;27.786;2022-08-23T15:52:19;33.03;;;7.18;;
63087;SDS011;49173;43.164;27.786;2022-08-23T15:54:46;38.45;;;7.30;;
63087;SDS011;49173;43.164;27.786;2022-08-23T15:57:16;43.58;;;7.13;;
63087;SDS011;49173;43.164;27.786;2022-08-23T15:59:45;45.15;;;7.25;;
63087;SDS011;49173;43.164;27.786;2022-08-23T16:02:14;37.85;;;6.30;;
63087;SDS011;49173;43.164;27.786;2022-08-23T16:04:42;48.50;;;7.65;;
63087;SDS011;49173;43.164;27.786;2022-08-23T16:07:12;45.53;;;7.30;;
63087;SDS011;49173;43.164;27.786;2022-08-23T16:09:41;52.17;;;7.82;;
63087;SDS011;49173;43.164;27.786;2022-08-23T16:12:09;61.50;;;7.72;;
63087;SDS011;49173;43.164;27.786;2022-08-23T16:14:36;56.92;;;8.23;;
63087;SDS011;49173;43.164;27.786;2022-08-23T16:17:03;59.45;;;8.05;;
63087;SDS011;49173;43.164;27.786;2022-08-23T16:19:32;51.58;;;8.20;;
63087;SDS011;49173;43.164;27.786;2022-08-23T16:22:01;59.97;;;8.80;;
63087;SDS011;49173;43.164;27.786;2022-08-23T16:24:27;70.22;;;9.27;;
63087;SDS011;49173;43.164;27.786;2022-08-23T16:26:54;66.43;;;8.15;;
63087;SDS011;49173;43.164;27.786;2022-08-23T16:29:21;76.80;;;9.40;;